createdAt,value
2018-06-12T00:00:49.769Z,68.41
2018-06-12T00:03:18.101Z,69.01
2018-06-12T00:05:46.571Z,68.97
2018-06-12T00:08:15.582Z,69.34
2018-06-12T00:10:43.849Z,69.18
2018-06-12T00:13:12.186Z,69.23
2018-06-12T00:15:40.616Z,70.03
2018-06-12T00:18:09.853Z,70.02
2018-06-12T00:20:38.841Z,70.12
2018-06-12T00:23:07.213Z,70.17
2018-06-12T00:25:35.517Z,70.50
2018-06-12T00:28:03.936Z,71.51
2018-06-12T00:30:32.462Z,70.96
2018-06-12T00:33:00.846Z,71.66
2018-06-12T00:35:29.105Z,71.61
2018-06-12T00:37:57.440Z,71.49
2018-06-12T00:40:25.800Z,71.65
2018-06-12T00:42:55.426Z,71.18
2018-06-12T00:45:23.821Z,71.01
2018-06-12T00:47:52.657Z,71.10
2018-06-12T00:50:21.126Z,71.81
2018-06-12T00:52:49.478Z,72.22
2018-06-12T00:55:17.885Z,72.84
2018-06-12T00:57:46.218Z,72.33
2018-06-12T01:00:14.733Z,73.22
2018-06-12T01:02:43.150Z,72.83
2018-06-12T01:05:11.607Z,72.68
2018-06-12T01:07:39.973Z,73.45
2018-06-12T01:10:09.677Z,72.54
2018-06-12T01:12:38.075Z,72.46
2018-06-12T01:15:06.434Z,73.69
2018-06-12T01:17:34.755Z,72.67
2018-06-12T01:20:03.753Z,72.82
2018-06-12T01:22:32.114Z,74.66
2018-06-12T01:25:00.435Z,74.85
2018-06-12T01:27:29.527Z,73.85
2018-06-12T01:29:58.068Z,73.24
2018-06-12T01:32:26.531Z,74.13
2018-06-12T01:34:54.870Z,74.37
2018-06-12T01:37:23.682Z,74.90
2018-06-12T01:39:53.952Z,74.76
2018-06-12T01:42:22.354Z,75.63
2018-06-12T01:44:50.809Z,76.23
2018-06-12T01:47:19.687Z,74.91
2018-06-12T01:49:48.006Z,77.60
2018-06-12T01:52:16.443Z,76.86
2018-06-12T01:54:44.865Z,77.61
2018-06-12T01:57:13.187Z,77.77
2018-06-12T01:59:41.702Z,78.28
2018-06-12T02:02:11.046Z,78.35
2018-06-12T02:04:40.374Z,77.84
2018-06-12T02:07:08.741Z,78.87
2018-06-12T02:19:23.987Z,78.36
2018-06-12T02:21:52.293Z,78.44
2018-06-12T02:24:20.532Z,78.92
2018-06-12T02:26:48.826Z,77.99
2018-06-12T02:29:17.085Z,78.95
2018-06-12T02:31:45.461Z,79.95
2018-06-12T02:34:13.893Z,80.23
2018-06-12T02:36:42.262Z,80.37
2018-06-12T02:39:10.560Z,80.98
2018-06-12T02:41:40.066Z,80.58
2018-06-12T02:44:08.976Z,80.16
2018-06-12T02:46:38.073Z,79.87
2018-06-12T02:49:08.132Z,81.32
2018-06-12T02:51:36.509Z,80.47
2018-06-12T02:54:04.954Z,79.21
2018-06-12T02:56:33.302Z,79.52
2018-06-12T02:59:01.571Z,80.64
2018-06-12T03:01:30.015Z,79.95
2018-06-12T03:03:58.396Z,80.82
2018-06-12T03:06:27.639Z,79.74
2018-06-12T03:08:56.009Z,80.15
2018-06-12T03:11:30.306Z,80.73
2018-06-12T03:13:58.982Z,80.57
2018-06-12T03:16:27.483Z,80.95
2018-06-12T03:18:56.329Z,78.99
2018-06-12T03:21:30.793Z,79.10
2018-06-12T03:23:59.377Z,78.77
2018-06-12T03:26:27.997Z,79.74
2018-06-12T03:28:57.612Z,79.32
2018-06-12T03:31:26.633Z,78.70
2018-06-12T03:33:55.023Z,80.16
2018-06-12T03:36:24.362Z,78.80
2018-06-12T03:38:52.654Z,79.77
2018-06-12T03:41:22.408Z,79.84
2018-06-12T03:43:50.681Z,79.64
2018-06-12T03:46:19.012Z,80.83
2018-06-12T03:48:48.154Z,80.32
2018-06-12T03:51:17.189Z,81.17
2018-06-12T03:53:45.550Z,81.12
2018-06-12T03:56:13.844Z,80.43
2018-06-12T03:58:42.763Z,79.93
2018-06-12T04:01:11.373Z,79.58
2018-06-12T04:03:40.141Z,78.49
2018-06-12T04:06:08.753Z,78.02
2018-06-12T04:08:37.064Z,79.06
2018-06-12T04:11:06.054Z,76.45
2018-06-12T04:13:34.569Z,78.25
2018-06-12T04:16:04.984Z,78.54
2018-06-12T04:18:33.970Z,78.38
2018-06-12T04:21:02.995Z,78.71
2018-06-12T04:23:31.390Z,79.42
2018-06-12T04:26:07.029Z,78.82
2018-06-12T04:28:43.786Z,79.32
2018-06-12T04:31:12.128Z,78.67
2018-06-12T04:33:40.605Z,79.49
2018-06-12T04:36:09.142Z,78.06
2018-06-12T04:38:37.651Z,79.25
2018-06-12T04:41:07.126Z,78.48
2018-06-12T04:43:35.466Z,78.38
2018-06-12T04:46:03.902Z,77.59
2018-06-12T04:48:32.754Z,77.38
2018-06-12T04:51:01.712Z,78.34
2018-06-12T04:53:30.037Z,79.30
2018-06-12T04:55:58.367Z,79.59
2018-06-12T04:58:26.678Z,79.05
2018-06-12T05:00:55.737Z,79.11
2018-06-12T05:03:24.069Z,80.25
2018-06-12T05:05:52.511Z,79.10
2018-06-12T05:08:20.817Z,78.75
2018-06-12T05:10:49.119Z,78.59
2018-06-12T05:13:17.457Z,78.56
2018-06-12T05:15:45.810Z,78.21
2018-06-12T05:18:14.189Z,79.78
2018-06-12T05:20:43.392Z,77.53
2018-06-12T05:23:11.833Z,77.29
2018-06-12T05:25:40.289Z,78.83
2018-06-12T05:28:11.741Z,77.85
2018-06-12T05:30:46.925Z,77.49
2018-06-12T05:33:17.689Z,76.36
2018-06-12T05:35:49.902Z,76.32
2018-06-12T05:38:19.661Z,75.07
2018-06-12T05:40:49.210Z,75.73
2018-06-12T05:43:22.191Z,77.04
2018-06-12T05:45:52.356Z,74.89
2018-06-12T05:48:21.018Z,76.33
2018-06-12T05:53:40.896Z,76.64
2018-06-12T05:56:13.399Z,76.53
2018-06-12T05:58:43.105Z,75.45
2018-06-12T06:01:17.677Z,75.93
2018-06-12T06:03:50.380Z,75.96
2018-06-12T06:06:19.391Z,74.22
2018-06-12T06:08:49.146Z,75.28
2018-06-12T06:11:19.448Z,75.25
2018-06-12T06:13:49.050Z,75.47
2018-06-12T06:16:17.568Z,73.25
2018-06-12T06:18:46.173Z,73.07
2018-06-12T06:21:14.663Z,73.18
2018-06-12T06:23:43.267Z,73.36
2018-06-12T06:26:12.498Z,73.15
2018-06-12T06:28:42.561Z,73.41
2018-06-12T06:31:11.247Z,73.66
2018-06-12T06:33:41.089Z,72.64
2018-06-12T06:36:10.797Z,70.84
2018-06-12T06:38:40.894Z,71.06
2018-06-12T06:41:10.090Z,70.76
2018-06-12T06:43:39.758Z,71.95
2018-06-12T06:46:10.631Z,71.67
2018-06-12T06:48:39.478Z,71.01
2018-06-12T06:51:08.346Z,70.96
2018-06-12T06:53:36.783Z,70.94
2018-06-12T06:56:05.171Z,71.01
2018-06-12T06:58:33.561Z,69.44
2018-06-12T07:01:02.886Z,70.70
2018-06-12T07:03:31.589Z,69.23
2018-06-12T07:06:00.631Z,68.84
2018-06-12T07:08:29.797Z,66.66
2018-06-12T07:10:58.451Z,69.80
2018-06-12T07:13:27.836Z,69.20
2018-06-12T07:15:57.247Z,68.18
2018-06-12T07:18:26.145Z,70.78
2018-06-12T07:21:05.961Z,69.18
2018-06-12T07:23:35.257Z,67.19
2018-06-12T07:26:04.080Z,69.22
2018-06-12T07:28:33.822Z,67.28
2018-06-12T07:31:02.462Z,65.20
2018-06-12T07:33:31.157Z,65.37
2018-06-12T07:36:02.422Z,66.85
2018-06-12T07:38:30.914Z,65.19
2018-06-12T07:40:59.276Z,65.44
2018-06-12T07:43:27.823Z,66.38
2018-06-12T07:45:56.420Z,64.99
2018-06-12T07:48:24.920Z,64.68
2018-06-12T07:50:53.420Z,65.51
2018-06-12T07:53:22.415Z,65.64
2018-06-12T07:55:51.561Z,65.76
2018-06-12T07:58:19.899Z,63.26
2018-06-12T08:00:48.512Z,63.43
2018-06-12T08:03:16.910Z,63.25
2018-06-12T08:05:45.433Z,64.37
2018-06-12T08:08:13.872Z,65.90
2018-06-12T08:10:42.245Z,62.96
2018-06-12T08:13:10.587Z,63.26
2018-06-12T08:15:39.294Z,62.33
2018-06-12T08:18:07.810Z,62.68
2018-06-12T08:20:36.948Z,63.26
2018-06-12T08:23:05.441Z,63.27
2018-06-12T08:25:36.965Z,63.54
2018-06-12T08:28:05.982Z,65.45
2018-06-12T08:30:35.207Z,63.71
2018-06-12T08:33:03.655Z,62.85
2018-06-12T08:35:32.197Z,63.87
2018-06-12T08:38:00.624Z,64.30
2018-06-12T08:40:29.263Z,66.25
2018-06-12T08:42:57.950Z,63.70
2018-06-12T08:45:26.268Z,65.89
2018-06-12T08:47:55.494Z,64.44
2018-06-12T08:50:24.393Z,65.22
2018-06-12T08:52:52.816Z,63.77
2018-06-12T08:55:22.617Z,64.77
2018-06-12T08:57:51.017Z,61.68
2018-06-12T09:00:19.409Z,64.92
2018-06-12T09:02:47.830Z,63.35
2018-06-12T09:05:17.601Z,63.03
2018-06-12T09:07:46.002Z,63.45
2018-06-12T09:10:16.480Z,64.29
2018-06-12T09:12:45.127Z,63.80
2018-06-12T09:15:13.578Z,63.22
2018-06-12T09:17:42.711Z,64.41
2018-06-12T09:20:11.422Z,62.39
2018-06-12T09:22:40.053Z,63.84
2018-06-12T09:25:08.593Z,63.52
2018-06-12T09:27:42.326Z,63.10
2018-06-12T09:30:10.638Z,62.31
2018-06-12T09:32:39.133Z,62.80
2018-06-12T09:35:07.729Z,63.22
2018-06-12T09:37:37.472Z,62.22
2018-06-12T09:40:05.867Z,63.45
2018-06-12T09:42:34.391Z,62.82
2018-06-12T09:45:03.741Z,61.04
2018-06-12T09:47:32.691Z,60.01
2018-06-12T09:50:01.091Z,59.16
2018-06-12T09:52:29.609Z,61.38
2018-06-12T09:54:57.922Z,61.31
2018-06-12T09:57:26.414Z,62.46
2018-06-12T09:59:54.783Z,61.59
2018-06-12T10:02:23.410Z,62.90
2018-06-12T10:04:54.565Z,61.53
2018-06-12T10:07:23.777Z,62.92
2018-06-12T10:09:52.313Z,64.06
2018-06-12T10:12:21.749Z,62.45
2018-06-12T10:14:50.106Z,64.24
2018-06-12T10:17:18.660Z,62.90
2018-06-12T10:19:46.934Z,61.49
2018-06-12T10:22:15.381Z,62.37
2018-06-12T10:24:44.347Z,63.49
2018-06-12T10:27:13.418Z,62.16
2018-06-12T10:29:42.054Z,62.44
2018-06-12T10:32:11.650Z,61.09
2018-06-12T10:34:48.968Z,62.93
2018-06-12T10:37:24.237Z,60.27
2018-06-12T10:39:53.746Z,59.95
2018-06-12T10:42:22.102Z,61.10
2018-06-12T10:44:50.410Z,60.58
2018-06-12T10:47:18.951Z,60.01
2018-06-12T10:49:47.393Z,59.23
2018-06-12T10:52:15.840Z,57.98
2018-06-12T10:54:44.154Z,58.33
2018-06-12T10:57:13.150Z,57.68
2018-06-12T10:59:41.447Z,56.62
2018-06-12T11:02:09.859Z,58.66
2018-06-12T11:04:38.166Z,59.07
2018-06-12T11:07:06.625Z,58.03
2018-06-12T11:09:35.679Z,57.52
2018-06-12T11:12:04.694Z,58.39
2018-06-12T11:14:33.036Z,60.36
2018-06-12T11:17:02.259Z,61.00
2018-06-12T11:19:32.568Z,60.36
2018-06-12T11:22:02.282Z,58.88
2018-06-12T11:24:30.726Z,60.68
2018-06-12T11:26:59.384Z,60.85
2018-06-12T11:29:27.903Z,61.11
2018-06-12T11:31:56.474Z,60.81
2018-06-12T11:34:25.085Z,61.16
2018-06-12T11:36:53.483Z,60.47
2018-06-12T11:39:21.841Z,62.72
2018-06-12T11:41:50.408Z,64.41
2018-06-12T11:44:18.756Z,64.61
2018-06-12T11:46:47.105Z,64.68
2018-06-12T11:49:15.770Z,63.19
2018-06-12T11:51:44.062Z,63.49
2018-06-12T11:54:12.885Z,64.39
2018-06-12T11:56:41.250Z,64.57
2018-06-12T11:59:09.652Z,64.90
2018-06-12T12:01:37.979Z,63.85
2018-06-12T12:04:06.345Z,65.67
2018-06-12T12:06:34.910Z,65.04
2018-06-12T12:09:03.334Z,63.04
2018-06-12T12:11:36.021Z,65.42
2018-06-12T12:14:05.845Z,64.07
2018-06-12T12:16:35.218Z,61.79
2018-06-12T12:19:03.736Z,62.83
2018-06-12T12:21:32.878Z,60.68
2018-06-12T12:24:01.315Z,58.85
2018-06-12T12:26:29.926Z,59.04
2018-06-12T12:28:58.392Z,60.41
2018-06-12T12:31:27.252Z,60.90
2018-06-12T12:33:57.854Z,55.81
2018-06-12T12:36:26.243Z,56.73
2018-06-12T12:38:56.870Z,56.83
2018-06-12T12:41:36.330Z,56.93
2018-06-12T12:44:04.722Z,59.23
2018-06-12T12:46:33.146Z,58.12
2018-06-12T12:49:01.652Z,57.26
2018-06-12T12:51:29.974Z,57.69
2018-06-12T12:53:58.326Z,56.42
2018-06-12T12:56:27.327Z,58.05
2018-06-12T12:58:56.340Z,56.14
2018-06-12T13:01:24.625Z,54.66
2018-06-12T13:03:52.990Z,57.69
2018-06-12T13:06:22.749Z,58.50
2018-06-12T13:08:51.621Z,57.03
2018-06-12T13:11:20.374Z,57.78
2018-06-12T13:13:48.638Z,57.26
2018-06-12T13:16:17.837Z,56.60
2018-06-12T13:18:46.962Z,56.49
2018-06-12T13:21:15.255Z,56.42
2018-06-12T13:23:44.287Z,58.44
2018-06-12T13:26:12.647Z,56.26
2018-06-12T13:28:41.968Z,56.74
2018-06-12T13:31:11.372Z,57.49
2018-06-12T13:33:39.794Z,55.84
2018-06-12T13:36:09.059Z,56.78
2018-06-12T13:38:38.602Z,57.65
2018-06-12T13:41:07.160Z,56.91
2018-06-12T13:43:36.353Z,56.21
2018-06-12T13:46:04.618Z,55.76
2018-06-12T13:48:33.006Z,55.79
2018-06-12T13:51:01.447Z,57.88
2018-06-12T13:53:30.390Z,56.27
2018-06-12T13:55:58.653Z,57.14
2018-06-12T13:58:27.675Z,56.97
2018-06-12T14:00:57.112Z,54.37
2018-06-12T14:03:25.736Z,55.36
2018-06-12T14:05:54.030Z,54.41
2018-06-12T14:08:35.019Z,53.58
2018-06-12T14:11:25.905Z,54.25
2018-06-12T14:16:49.484Z,54.14
2018-06-12T14:19:29.061Z,53.66
2018-06-12T14:25:13.059Z,56.26
2018-06-12T14:28:10.019Z,55.45
2018-06-12T14:31:29.035Z,54.35
2018-06-12T14:34:06.220Z,54.94
2018-06-12T14:42:34.444Z,55.87
2018-06-12T14:45:32.056Z,56.76
2018-06-12T14:51:39.375Z,56.70
2018-06-12T15:12:54.068Z,56.19
2018-06-12T15:18:38.875Z,56.86
2018-06-12T15:21:33.429Z,55.58
2018-06-12T15:27:55.590Z,56.20
2018-06-12T15:30:49.977Z,55.77
2018-06-12T15:33:29.298Z,56.44
2018-06-12T15:36:11.243Z,56.12
2018-06-12T15:42:05.287Z,55.75
2018-06-12T15:44:51.487Z,56.42
2018-06-12T15:50:18.777Z,54.21
2018-06-12T15:56:05.924Z,55.61
2018-06-12T15:58:49.115Z,56.91
2018-06-12T16:01:36.589Z,54.32
2018-06-12T16:04:12.008Z,56.81
2018-06-12T16:06:49.684Z,55.04
2018-06-12T16:09:34.494Z,57.33
2018-06-12T16:12:53.541Z,56.16
2018-06-12T16:15:45.366Z,57.66
2018-06-12T16:21:24.728Z,57.29
2018-06-12T16:24:11.843Z,57.00
2018-06-12T16:26:53.119Z,55.89
2018-06-12T16:32:46.324Z,56.43
2018-06-12T16:35:41.051Z,56.89
2018-06-12T16:45:20.493Z,56.84
2018-06-12T17:08:35.096Z,58.33
2018-06-12T17:20:40.951Z,60.61
2018-06-12T17:31:40.189Z,60.32
2018-06-12T17:34:09.823Z,59.50
2018-06-12T17:36:40.130Z,59.45
2018-06-12T17:39:09.720Z,60.08
2018-06-12T17:41:39.342Z,59.82
2018-06-12T17:44:10.034Z,59.32
2018-06-12T17:46:39.745Z,59.63
2018-06-12T17:49:16.023Z,60.72
2018-06-12T17:51:47.544Z,60.02
2018-06-12T17:54:19.199Z,59.90
2018-06-12T17:57:01.029Z,60.74
2018-06-12T17:59:33.112Z,61.50
2018-06-12T18:02:04.096Z,61.36
2018-06-12T18:04:36.253Z,61.63
2018-06-12T18:07:13.378Z,62.06
2018-06-12T18:09:46.284Z,61.50
2018-06-12T18:12:16.987Z,62.20
2018-06-12T18:14:49.508Z,62.65
2018-06-12T18:17:51.488Z,61.01
2018-06-12T18:20:21.750Z,62.06
2018-06-12T18:22:52.029Z,62.11
2018-06-12T18:25:22.159Z,62.89
2018-06-12T18:27:54.890Z,62.71
2018-06-12T18:30:24.990Z,62.25
2018-06-12T18:32:54.590Z,62.75
2018-06-12T18:35:24.266Z,63.31
2018-06-12T18:37:54.443Z,63.90
2018-06-12T18:40:23.968Z,62.64
2018-06-12T18:42:53.554Z,63.17
2018-06-12T18:45:22.782Z,63.86
2018-06-12T18:47:52.719Z,63.56
2018-06-12T18:50:22.044Z,64.44
2018-06-12T18:52:51.876Z,64.65
2018-06-12T18:55:21.137Z,64.85
2018-06-12T18:57:51.285Z,64.40
2018-06-12T19:00:20.841Z,63.83
2018-06-12T19:02:50.394Z,64.71
2018-06-12T19:05:19.994Z,64.05
2018-06-12T19:07:49.654Z,64.89
2018-06-12T19:10:20.577Z,65.38
2018-06-12T19:12:51.126Z,64.47
2018-06-12T19:15:22.809Z,64.41
2018-06-12T19:17:52.052Z,63.96
2018-06-12T19:20:22.665Z,65.05
2018-06-12T19:22:52.684Z,65.04
2018-06-12T19:25:23.190Z,64.28
2018-06-12T19:27:57.505Z,64.96
2018-06-12T19:30:27.233Z,64.43
2018-06-12T19:32:57.932Z,64.82
2018-06-12T19:35:27.606Z,64.69
2018-06-12T19:37:58.975Z,64.69
2018-06-12T19:40:28.746Z,64.70
2018-06-12T19:42:58.768Z,64.88
2018-06-12T19:45:29.603Z,65.19
2018-06-12T19:47:58.232Z,65.30
2018-06-12T19:50:27.114Z,65.68
2018-06-12T19:52:55.679Z,65.83
2018-06-12T19:55:24.381Z,66.02
2018-06-12T19:57:52.754Z,65.58
2018-06-12T20:00:21.330Z,66.10
2018-06-12T20:02:49.615Z,66.16
2018-06-12T20:05:17.970Z,65.93
2018-06-12T20:07:52.818Z,66.18
2018-06-12T20:10:21.201Z,65.36
2018-06-12T20:12:49.519Z,66.41
2018-06-12T20:15:19.709Z,66.14
2018-06-12T20:17:49.111Z,66.39
2018-06-12T20:20:19.216Z,66.26
2018-06-12T20:22:48.956Z,66.32
2018-06-12T20:25:19.657Z,66.27
2018-06-12T20:27:49.348Z,66.67
2018-06-12T20:30:19.079Z,67.03
2018-06-12T20:32:48.597Z,67.72
2018-06-12T20:35:18.343Z,67.32
2018-06-12T20:37:48.548Z,67.40
2018-06-12T20:40:18.638Z,67.65
2018-06-12T20:42:48.555Z,67.96
2018-06-12T20:45:20.889Z,67.73
2018-06-12T20:47:50.081Z,68.08
2018-06-12T20:50:20.032Z,68.16
2018-06-12T20:52:57.145Z,68.31
2018-06-12T20:55:37.289Z,68.30
2018-06-12T20:58:11.498Z,68.53
2018-06-12T21:00:45.797Z,68.52
2018-06-12T21:03:16.080Z,68.87
2018-06-12T21:05:50.941Z,69.11
2018-06-12T21:08:24.271Z,69.50
2018-06-12T21:10:54.211Z,69.52
2018-06-12T21:13:24.103Z,69.40
2018-06-12T21:15:53.632Z,69.61
2018-06-12T21:18:23.722Z,70.24
2018-06-12T21:20:52.987Z,69.48
2018-06-12T21:23:22.655Z,69.39
2018-06-12T21:25:52.006Z,69.39
2018-06-12T21:28:21.445Z,69.51
2018-06-12T21:30:50.956Z,69.17
2018-06-12T21:33:20.433Z,69.10
2018-06-12T21:35:49.578Z,70.03
2018-06-12T21:38:19.011Z,69.62
2018-06-12T21:40:48.390Z,70.19
2018-06-12T21:43:17.799Z,70.57
2018-06-12T21:45:47.258Z,70.55
2018-06-12T21:48:16.861Z,70.13
2018-06-12T21:50:46.435Z,70.15
2018-06-12T21:53:15.780Z,70.78
2018-06-12T21:55:45.074Z,70.82
2018-06-12T21:58:14.540Z,70.75
2018-06-12T22:00:43.722Z,70.52
2018-06-12T22:03:13.198Z,70.35
2018-06-12T22:05:43.295Z,70.69
2018-06-12T22:08:13.196Z,70.90
2018-06-12T22:10:43.054Z,71.07
2018-06-12T22:13:12.745Z,71.53
2018-06-12T22:15:42.860Z,70.64
2018-06-12T22:18:12.448Z,70.41
2018-06-12T22:20:42.015Z,70.96
2018-06-12T22:23:12.267Z,71.18
2018-06-12T22:25:42.187Z,70.69
2018-06-12T22:28:13.401Z,70.11
2018-06-12T22:30:43.562Z,69.97
2018-06-12T22:33:13.459Z,71.45
2018-06-12T22:35:43.314Z,71.02
2018-06-12T22:38:16.975Z,70.92
2018-06-12T22:40:46.983Z,70.82
2018-06-12T22:43:16.976Z,70.95
2018-06-12T22:45:47.583Z,71.10
2018-06-12T22:48:17.260Z,71.92
2018-06-12T22:50:47.366Z,71.15
2018-06-12T22:53:17.171Z,71.34
2018-06-12T22:55:46.940Z,71.01
2018-06-12T22:58:17.023Z,71.57
2018-06-12T23:00:46.387Z,71.40
2018-06-12T23:03:16.682Z,71.24
2018-06-12T23:05:46.171Z,71.84
2018-06-12T23:08:16.381Z,71.17
2018-06-12T23:10:46.009Z,71.15
2018-06-12T23:13:15.562Z,71.78
2018-06-12T23:15:45.157Z,71.90
2018-06-12T23:18:14.932Z,71.71
2018-06-12T23:21:58.266Z,71.66
2018-06-12T23:24:28.805Z,72.88
2018-06-12T23:26:58.325Z,72.87
2018-06-12T23:29:28.199Z,72.21
2018-06-12T23:31:57.914Z,72.23
2018-06-12T23:34:27.405Z,72.20
2018-06-12T23:36:57.163Z,72.23
2018-06-12T23:39:27.584Z,72.55
2018-06-12T23:41:56.994Z,72.48
2018-06-12T23:44:27.203Z,72.15
2018-06-12T23:46:56.798Z,72.81
2018-06-12T23:49:26.227Z,72.09
2018-06-12T23:51:55.885Z,71.76
2018-06-12T23:54:25.433Z,72.40
2018-06-12T23:56:55.017Z,71.97
2018-06-12T23:59:24.416Z,71.51
